Time;durP1;ratioP1;P1;durP2;ratioP2;P2;SDS_P1;SDS_P2;PMS_P1;PMS_P2;Temp;Humidity;BMP_temperature;BMP_pressure;BME280_temperature;BME280_humidity;BME280_pressure;Samples;Min_cycle;Max_cycle;Signal;HPM_P1;HPM_P2
2023/07/05 00:02:14;;;;;;;4.57;2.05;;;15.90;99.90;;;;;;5072172;28;20047;-71
2023/07/05 00:04:40;;;;;;;3.10;1.55;;;15.90;99.90;;;;;;5069937;28;20456;-71
2023/07/05 00:07:06;;;;;;;6.32;2.10;;;15.90;99.90;;;;;;5070623;28;20042;-72
2023/07/05 00:09:31;;;;;;;3.92;1.92;;;15.90;99.90;;;;;;5065757;28;20040;-71
2023/07/05 00:11:57;;;;;;;7.00;1.85;;;15.90;99.90;;;;;;5070508;28;20040;-71
2023/07/05 00:14:24;;;;;;;6.22;2.00;;;15.90;99.90;;;;;;5072512;28;21745;-71
2023/07/05 00:16:49;;;;;;;5.18;1.95;;;15.80;99.90;;;;;;5075028;28;20032;-71
2023/07/05 00:19:15;;;;;;;5.55;2.05;;;15.80;99.90;;;;;;5086454;28;20047;-71
2023/07/05 00:21:41;;;;;;;3.65;1.88;;;15.80;99.90;;;;;;5068088;28;20340;-71
2023/07/05 00:24:06;;;;;;;6.97;1.73;;;15.70;99.90;;;;;;5070132;28;20034;-71
2023/07/05 00:26:32;;;;;;;7.45;1.83;;;15.70;99.90;;;;;;5070486;28;20061;-71
2023/07/05 00:28:58;;;;;;;6.97;2.03;;;15.70;99.90;;;;;;5067725;28;20406;-71
2023/07/05 00:31:23;;;;;;;5.45;2.10;;;15.70;99.90;;;;;;5068920;28;20433;-71
2023/07/05 00:33:49;;;;;;;5.72;2.10;;;15.70;99.90;;;;;;5067828;28;20040;-71
2023/07/05 00:36:14;;;;;;;5.45;1.75;;;15.70;99.90;;;;;;5085255;28;20040;-71
2023/07/05 00:38:40;;;;;;;3.80;1.67;;;15.70;99.90;;;;;;5067659;28;20413;-71
2023/07/05 00:41:06;;;;;;;6.75;1.98;;;15.70;99.90;;;;;;5069125;28;20044;-71
2023/07/05 00:43:31;;;;;;;3.30;1.90;;;15.70;99.90;;;;;;5067379;28;20114;-71
2023/07/05 00:45:59;;;;;;;4.93;1.90;;;15.70;99.90;;;;;;5075114;28;20196;-71
2023/07/05 00:48:41;;;;;;;5.47;2.05;;;15.70;99.90;;;;;;5069380;28;20447;-71
2023/07/05 00:51:27;;;;;;;5.05;1.63;;;15.70;99.90;;;;;;5071795;28;20047;-71
2023/07/05 00:53:57;;;;;;;3.05;1.70;;;15.70;99.90;;;;;;5067334;28;20049;-71
2023/07/05 00:56:41;;;;;;;4.90;2.10;;;15.70;99.90;;;;;;5070235;28;21202;-71
2023/07/05 00:59:09;;;;;;;3.42;1.83;;;15.70;99.90;;;;;;5065332;28;20086;-71
2023/07/05 01:01:36;;;;;;;5.57;1.95;;;15.70;99.90;;;;;;5068767;28;20231;-71
2023/07/05 01:04:04;;;;;;;5.07;1.83;;;15.70;99.90;;;;;;5066108;28;20443;-71
2023/07/05 01:06:30;;;;;;;5.20;1.75;;;15.70;99.90;;;;;;5069199;28;20035;-71
2023/07/05 01:08:56;;;;;;;5.72;2.13;;;15.70;99.90;;;;;;5074951;28;20032;-71
2023/07/05 01:11:51;;;;;;;4.32;2.00;;;15.70;99.90;;;;;;5089221;28;20036;-71
2023/07/05 01:14:29;;;;;;;6.57;2.05;;;15.70;99.90;;;;;;5046724;28;20037;-71
2023/07/05 01:17:07;;;;;;;4.85;2.25;;;15.70;99.90;;;;;;5068839;28;20047;-71
2023/07/05 01:20:01;;;;;;;3.67;2.13;;;15.70;99.90;;;;;;5069737;28;20049;-71
2023/07/05 01:22:58;;;;;;;6.32;2.17;;;15.70;99.90;;;;;;5064938;28;20131;-71
2023/07/05 01:25:24;;;;;;;7.70;2.55;;;15.70;99.90;;;;;;5064264;28;20461;-71
2023/07/05 01:27:58;;;;;;;6.97;2.22;;;15.80;99.90;;;;;;5069354;28;20097;-71
2023/07/05 01:30:46;;;;;;;4.53;2.07;;;15.80;99.90;;;;;;5077731;28;20036;-71
2023/07/05 01:33:19;;;;;;;6.40;2.78;;;15.80;99.90;;;;;;5066814;28;20402;-71
2023/07/05 01:35:49;;;;;;;6.28;2.03;;;15.80;99.90;;;;;;5071353;28;20032;-71
2023/07/05 01:38:15;;;;;;;8.18;2.70;;;15.70;99.90;;;;;;5064694;28;20051;-71
2023/07/05 01:40:43;;;;;;;6.90;2.63;;;15.70;99.90;;;;;;5066935;28;20131;-71
2023/07/05 01:43:14;;;;;;;3.63;2.17;;;15.70;99.90;;;;;;5065528;28;20494;-71
2023/07/05 01:45:53;;;;;;;6.85;2.28;;;15.70;99.90;;;;;;5066495;28;20562;-71
2023/07/05 01:48:50;;;;;;;5.20;2.55;;;15.70;99.90;;;;;;5066404;28;20055;-71
2023/07/05 01:51:26;;;;;;;7.07;2.45;;;15.60;99.90;;;;;;5049983;28;20052;-72
2023/07/05 01:54:15;;;;;;;5.70;2.75;;;15.50;99.90;;;;;;5077376;28;20401;-71
2023/07/05 01:57:11;;;;;;;6.97;2.50;;;15.50;99.90;;;;;;5069176;28;20098;-71
2023/07/05 01:59:49;;;;;;;5.10;2.22;;;15.40;99.90;;;;;;5060833;28;20044;-71
2023/07/05 02:02:18;;;;;;;7.25;2.95;;;15.40;99.90;;;;;;5065975;28;20486;-71
2023/07/05 02:04:45;;;;;;;6.50;2.97;;;15.30;99.90;;;;;;5049128;28;20300;-71
2023/07/05 02:07:11;;;;;;;7.13;2.58;;;15.30;99.90;;;;;;5054202;28;20036;-71
2023/07/05 02:09:38;;;;;;;5.63;2.53;;;15.20;99.90;;;;;;5066908;28;20077;-71
2023/07/05 02:12:07;;;;;;;6.60;2.67;;;15.20;99.90;;;;;;5063141;28;20040;-71
2023/07/05 02:14:32;;;;;;;6.53;2.80;;;15.20;99.90;;;;;;5075181;28;20049;-71
2023/07/05 02:16:58;;;;;;;6.30;3.25;;;15.10;99.90;;;;;;5073405;28;20050;-71
2023/07/05 02:19:23;;;;;;;7.00;3.40;;;15.10;99.90;;;;;;5066415;28;20079;-71
2023/07/05 02:21:49;;;;;;;8.30;3.03;;;15.10;99.90;;;;;;5066475;28;20064;-71
2023/07/05 02:24:15;;;;;;;5.78;2.63;;;15.10;99.90;;;;;;5072379;28;20086;-71
2023/07/05 02:26:40;;;;;;;9.55;3.00;;;15.10;99.90;;;;;;5034390;28;20484;-71
2023/07/05 02:29:06;;;;;;;6.40;2.90;;;15.10;99.90;;;;;;5072582;28;20413;-71
2023/07/05 02:31:32;;;;;;;6.85;2.85;;;15.10;99.90;;;;;;5067485;28;20119;-71
2023/07/05 02:33:57;;;;;;;7.88;3.47;;;15.10;99.90;;;;;;5070658;28;20061;-71
2023/07/05 02:36:23;;;;;;;6.35;2.95;;;15.10;99.90;;;;;;5068820;28;20489;-71
2023/07/05 02:38:51;;;;;;;7.32;2.97;;;15.10;99.90;;;;;;5067608;28;20127;-71
2023/07/05 02:41:17;;;;;;;7.93;2.58;;;15.10;99.90;;;;;;5067932;28;20557;-71
2023/07/05 02:43:43;;;;;;;5.82;3.00;;;15.10;99.90;;;;;;5070519;28;20046;-71
2023/07/05 02:46:08;;;;;;;5.63;3.03;;;15.10;99.90;;;;;;5066300;28;20044;-71
2023/07/05 02:48:34;;;;;;;8.65;3.33;;;15.10;99.90;;;;;;5051163;28;20041;-71
2023/07/05 02:50:59;;;;;;;6.05;3.22;;;15.10;99.90;;;;;;5077080;28;20081;-71
2023/07/05 02:53:25;;;;;;;6.55;3.40;;;15.10;99.90;;;;;;5068473;28;20067;-71
2023/07/05 02:55:51;;;;;;;6.35;3.15;;;15.20;99.90;;;;;;5070193;28;20044;-71
2023/07/05 02:58:17;;;;;;;9.50;3.20;;;15.10;99.90;;;;;;5070937;28;20025;-71
2023/07/05 03:00:43;;;;;;;6.07;2.95;;;15.10;99.90;;;;;;5066190;28;20503;-71
2023/07/05 03:03:09;;;;;;;9.82;3.60;;;15.20;99.90;;;;;;5066644;28;20028;-71
2023/07/05 03:05:35;;;;;;;6.57;3.03;;;15.20;99.90;;;;;;5061086;28;20189;-71
2023/07/05 03:08:00;;;;;;;9.45;3.22;;;15.20;99.90;;;;;;5072280;28;20060;-71
2023/07/05 03:10:26;;;;;;;7.93;3.50;;;15.20;99.90;;;;;;5071662;28;20037;-71
2023/07/05 03:12:51;;;;;;;8.95;3.45;;;15.20;99.90;;;;;;5077931;28;20039;-71
2023/07/05 03:15:17;;;;;;;7.60;3.05;;;15.20;99.90;;;;;;5053917;28;20059;-71
2023/07/05 03:17:43;;;;;;;6.65;3.42;;;15.20;99.90;;;;;;5071532;28;20028;-71
2023/07/05 03:20:09;;;;;;;8.65;3.50;;;15.20;99.90;;;;;;5069921;28;20222;-71
2023/07/05 03:22:35;;;;;;;7.28;3.38;;;15.20;99.90;;;;;;5077355;28;20037;-71
2023/07/05 03:25:00;;;;;;;6.55;3.40;;;15.20;99.90;;;;;;5072623;28;20486;-71
2023/07/05 03:27:28;;;;;;;7.30;3.30;;;15.20;99.90;;;;;;5077423;28;20091;-71
2023/07/05 03:29:55;;;;;;;9.15;3.30;;;15.20;99.90;;;;;;5074116;28;20047;-71
2023/07/05 03:32:21;;;;;;;7.63;3.60;;;15.20;99.90;;;;;;5075291;28;20378;-71
2023/07/05 03:34:47;;;;;;;9.95;3.38;;;15.20;99.90;;;;;;5055401;28;20036;-71
2023/07/05 03:37:12;;;;;;;11.63;3.10;;;15.30;99.90;;;;;;5072198;28;20031;-71
2023/07/05 03:39:38;;;;;;;11.23;4.00;;;15.20;99.90;;;;;;5072390;28;20406;-71
2023/07/05 03:42:03;;;;;;;8.38;3.40;;;15.30;99.90;;;;;;5068373;28;20044;-71
2023/07/05 03:44:29;;;;;;;7.60;3.45;;;15.30;99.90;;;;;;5070414;28;20113;-71
2023/07/05 03:46:55;;;;;;;6.72;2.97;;;15.30;99.90;;;;;;5067378;28;20032;-71
2023/07/05 03:49:20;;;;;;;9.15;3.17;;;15.30;99.90;;;;;;5075344;28;20039;-71
2023/07/05 03:51:46;;;;;;;7.00;2.92;;;15.30;99.90;;;;;;5063356;28;20405;-71
2023/07/05 03:54:12;;;;;;;8.52;3.50;;;15.30;99.90;;;;;;5070211;28;20021;-71
2023/07/05 03:56:37;;;;;;;8.25;3.53;;;15.30;99.90;;;;;;5073444;28;20563;-71
2023/07/05 03:59:03;;;;;;;10.40;3.10;;;15.30;99.90;;;;;;5075088;28;20422;-71
2023/07/05 04:01:30;;;;;;;8.52;3.45;;;15.30;99.90;;;;;;5070362;28;20032;-72
2023/07/05 04:03:58;;;;;;;9.23;3.65;;;15.30;99.90;;;;;;5069611;28;20029;-71
2023/07/05 04:06:28;;;;;;;6.20;3.30;;;15.30;99.90;;;;;;5069569;28;20193;-71
2023/07/05 04:08:53;;;;;;;6.68;2.83;;;15.40;99.90;;;;;;5066580;28;20028;-71
2023/07/05 04:11:19;;;;;;;8.27;2.88;;;15.30;99.90;;;;;;5073251;28;20040;-71
2023/07/05 04:13:45;;;;;;;6.88;3.03;;;15.30;99.90;;;;;;5070136;28;20099;-72
2023/07/05 04:16:20;;;;;;;5.80;3.15;;;15.40;99.90;;;;;;5079992;28;20482;-72
2023/07/05 04:18:49;;;;;;;7.60;3.00;;;15.40;99.90;;;;;;5069782;28;20079;-71
2023/07/05 04:21:15;;;;;;;7.93;3.42;;;15.40;99.90;;;;;;5078088;28;20469;-71
2023/07/05 04:23:41;;;;;;;5.32;2.65;;;15.40;99.90;;;;;;5068124;28;20179;-71
2023/07/05 04:26:10;;;;;;;6.20;2.95;;;15.50;99.90;;;;;;5069291;28;20050;-71
2023/07/05 04:28:37;;;;;;;7.95;2.80;;;15.50;99.90;;;;;;5071026;28;20079;-72
2023/07/05 04:31:09;;;;;;;5.38;2.20;;;15.50;99.90;;;;;;5077314;28;20045;-72
2023/07/05 04:33:35;;;;;;;6.70;2.70;;;15.50;99.90;;;;;;5077386;28;20075;-72
2023/07/05 04:36:01;;;;;;;5.90;2.42;;;15.50;99.90;;;;;;5072660;28;20086;-72
2023/07/05 04:38:27;;;;;;;6.03;2.10;;;15.50;99.90;;;;;;5074188;28;20044;-72
2023/07/05 04:40:53;;;;;;;4.57;1.98;;;15.50;99.90;;;;;;5069823;28;20035;-72
2023/07/05 04:43:19;;;;;;;3.97;1.95;;;15.50;99.90;;;;;;5059246;28;20121;-72
2023/07/05 04:45:52;;;;;;;5.20;2.42;;;15.50;99.90;;;;;;5073153;28;20063;-72
2023/07/05 04:48:19;;;;;;;3.88;1.90;;;15.50;99.90;;;;;;5065857;28;20141;-71
2023/07/05 04:50:47;;;;;;;5.00;1.65;;;15.50;99.90;;;;;;5068587;28;20048;-72
2023/07/05 04:53:13;;;;;;;2.47;1.23;;;15.50;99.90;;;;;;5070453;28;20044;-72
2023/07/05 04:55:51;;;;;;;2.67;1.40;;;15.50;99.90;;;;;;5074426;28;20511;-72
2023/07/05 04:58:18;;;;;;;5.07;1.90;;;15.50;99.90;;;;;;5072533;28;20066;-72
2023/07/05 05:00:49;;;;;;;3.28;1.35;;;15.40;99.90;;;;;;5067190;28;20055;-71
2023/07/05 05:03:16;;;;;;;3.40;1.50;;;15.30;99.90;;;;;;5067531;28;20398;-72
2023/07/05 05:05:43;;;;;;;4.15;1.50;;;15.10;99.90;;;;;;5072242;28;20047;-71
2023/07/05 05:08:09;;;;;;;4.05;2.00;;;15.10;99.90;;;;;;5051782;28;20077;-70
2023/07/05 05:10:36;;;;;;;6.05;1.55;;;15.00;99.90;;;;;;5073943;28;20130;-71
2023/07/05 05:13:03;;;;;;;4.00;1.50;;;14.90;99.90;;;;;;5069649;28;20052;-71
2023/07/05 05:15:28;;;;;;;2.42;1.35;;;14.90;99.90;;;;;;5069630;28;20075;-71
2023/07/05 05:17:54;;;;;;;4.00;1.48;;;14.80;99.90;;;;;;5073585;28;20067;-71
2023/07/05 05:20:19;;;;;;;3.45;1.40;;;14.80;99.90;;;;;;5048428;28;20071;-71
2023/07/05 05:22:45;;;;;;;4.60;1.63;;;14.70;99.90;;;;;;5070131;28;20032;-71
2023/07/05 05:25:11;;;;;;;3.38;1.73;;;14.70;99.90;;;;;;5067023;28;20055;-71
2023/07/05 05:27:36;;;;;;;4.05;1.42;;;14.60;99.90;;;;;;5073171;28;20082;-71
2023/07/05 05:30:02;;;;;;;4.57;1.85;;;14.60;99.90;;;;;;5072280;28;20048;-71
2023/07/05 05:32:27;;;;;;;4.18;1.80;;;14.60;99.90;;;;;;5063706;28;20216;-71
2023/07/05 05:34:54;;;;;;;3.90;1.92;;;14.60;99.90;;;;;;5078581;28;20410;-72
2023/07/05 05:37:19;;;;;;;3.75;1.95;;;14.70;99.90;;;;;;5064612;28;20054;-72
2023/07/05 05:39:45;;;;;;;3.67;1.67;;;14.70;99.90;;;;;;5066327;28;20051;-72
2023/07/05 05:42:11;;;;;;;4.03;1.50;;;14.60;99.90;;;;;;5067433;28;20024;-71
2023/07/05 05:44:36;;;;;;;5.13;2.08;;;14.70;99.90;;;;;;5069962;28;20064;-71
2023/07/05 05:47:02;;;;;;;4.20;1.67;;;14.70;99.90;;;;;;5064434;28;20040;-72
2023/07/05 05:49:28;;;;;;;3.67;1.52;;;14.80;99.90;;;;;;5069242;28;20032;-72
2023/07/05 05:51:53;;;;;;;3.95;1.77;;;14.80;99.90;;;;;;5062879;28;20028;-72
2023/07/05 05:54:19;;;;;;;4.07;1.63;;;14.90;99.90;;;;;;5062622;28;20025;-72
2023/07/05 05:56:44;;;;;;;3.38;1.48;;;14.80;99.90;;;;;;5062113;28;20044;-71
2023/07/05 05:59:10;;;;;;;3.83;1.55;;;14.80;99.90;;;;;;5069006;28;20076;-72
2023/07/05 06:01:35;;;;;;;2.97;1.27;;;14.80;99.90;;;;;;5064619;28;20032;-71
2023/07/05 06:04:02;;;;;;;3.28;1.40;;;14.80;99.90;;;;;;5069728;28;20039;-72
2023/07/05 06:06:27;;;;;;;4.07;1.63;;;14.80;99.90;;;;;;5063666;28;20402;-72
2023/07/05 06:08:53;;;;;;;5.15;1.70;;;14.80;99.90;;;;;;5066857;28;20697;-72
2023/07/05 06:11:18;;;;;;;3.53;1.50;;;14.90;99.90;;;;;;5068866;28;20071;-72
2023/07/05 06:13:44;;;;;;;3.75;1.45;;;14.90;99.90;;;;;;5062098;28;20057;-72
2023/07/05 06:16:09;;;;;;;3.55;1.45;;;14.90;99.90;;;;;;5071480;28;20040;-72
2023/07/05 06:18:35;;;;;;;2.85;1.20;;;15.00;99.90;;;;;;5066918;28;20189;-71
2023/07/05 06:21:01;;;;;;;5.65;1.40;;;15.00;99.90;;;;;;5057429;28;20044;-72
2023/07/05 06:23:26;;;;;;;3.35;1.30;;;15.10;99.90;;;;;;5063760;28;20047;-72
2023/07/05 06:25:52;;;;;;;5.30;1.45;;;15.10;99.90;;;;;;5058835;28;20109;-71
2023/07/05 06:28:18;;;;;;;5.30;1.33;;;15.20;99.90;;;;;;5067163;28;20058;-71
2023/07/05 06:30:45;;;;;;;3.97;1.38;;;15.20;99.90;;;;;;5064228;28;20073;-71
2023/07/05 06:33:12;;;;;;;3.75;1.02;;;15.30;99.90;;;;;;5065837;28;20044;-71
2023/07/05 06:35:37;;;;;;;2.33;1.05;;;15.50;99.90;;;;;;5065254;28;20048;-71
2023/07/05 06:38:03;;;;;;;5.20;1.65;;;16.00;99.90;;;;;;5075030;28;20040;-71
2023/07/05 06:40:29;;;;;;;3.65;1.50;;;16.50;99.90;;;;;;5065887;28;20056;-71
2023/07/05 06:42:54;;;;;;;4.13;1.27;;;17.20;99.90;;;;;;5069747;28;20032;-71
2023/07/05 06:45:20;;;;;;;4.07;1.35;;;17.80;99.90;;;;;;5064625;28;20473;-72
2023/07/05 06:47:46;;;;;;;3.25;1.40;;;18.30;99.90;;;;;;5078803;28;20047;-72
2023/07/05 06:50:12;;;;;;;3.88;1.10;;;18.80;99.90;;;;;;5067558;28;20031;-72
2023/07/05 06:52:39;;;;;;;3.42;1.40;;;19.40;99.90;;;;;;5063049;28;20037;-72
2023/07/05 06:55:05;;;;;;;2.65;1.15;;;19.70;99.90;;;;;;5043448;28;20044;-72
2023/07/05 06:57:31;;;;;;;3.33;1.27;;;19.30;99.90;;;;;;5067366;28;20044;-71
2023/07/05 06:59:57;;;;;;;3.67;1.15;;;18.90;99.90;;;;;;5066451;28;20045;-71
2023/07/05 07:02:22;;;;;;;4.18;1.92;;;18.50;99.90;;;;;;5065630;28;20038;-71
2023/07/05 07:04:48;;;;;;;3.28;1.30;;;18.10;99.90;;;;;;5068824;28;20374;-72
2023/07/05 07:07:14;;;;;;;3.80;1.40;;;17.70;99.90;;;;;;5056921;28;20028;-72
2023/07/05 07:09:40;;;;;;;3.78;1.15;;;17.40;99.90;;;;;;5062765;28;20472;-72
2023/07/05 07:12:07;;;;;;;3.03;0.95;;;17.10;99.90;;;;;;5061664;28;20044;-71
2023/07/05 07:14:33;;;;;;;3.35;1.25;;;16.90;99.90;;;;;;5063013;28;20052;-72
2023/07/05 07:16:59;;;;;;;3.45;1.08;;;16.70;99.90;;;;;;5064819;28;20032;-72
2023/07/05 07:19:25;;;;;;;4.90;1.60;;;16.60;99.90;;;;;;5063455;28;20517;-71
2023/07/05 07:21:50;;;;;;;1.88;1.30;;;16.60;99.90;;;;;;5063351;28;20036;-71
2023/07/05 07:24:16;;;;;;;2.35;1.05;;;16.60;99.90;;;;;;5068337;28;20397;-71
2023/07/05 07:26:42;;;;;;;4.68;1.38;;;16.60;99.90;;;;;;5077120;28;20414;-72
2023/07/05 07:29:08;;;;;;;2.90;1.25;;;16.60;99.90;;;;;;5065555;28;20163;-71
2023/07/05 07:31:34;;;;;;;3.65;1.35;;;16.50;99.90;;;;;;5058247;28;20058;-72
2023/07/05 07:34:01;;;;;;;3.28;1.30;;;16.40;99.90;;;;;;5070940;28;20028;-71
2023/07/05 07:36:29;;;;;;;3.85;1.20;;;16.10;99.90;;;;;;5066064;28;20040;-71
2023/07/05 07:38:56;;;;;;;3.83;1.40;;;16.00;99.90;;;;;;5075601;28;20760;-71
2023/07/05 07:41:25;;;;;;;5.45;1.42;;;15.80;99.90;;;;;;5070439;28;20092;-71
2023/07/05 07:43:55;;;;;;;2.42;0.90;;;15.70;99.90;;;;;;5066652;28;20489;-71
2023/07/05 07:46:25;;;;;;;4.63;1.30;;;15.60;99.90;;;;;;5059121;28;20040;-71
2023/07/05 07:48:53;;;;;;;4.32;1.38;;;15.50;99.90;;;;;;5067827;28;20032;-71
2023/07/05 07:51:21;;;;;;;2.65;0.93;;;15.30;99.90;;;;;;5065254;28;20040;-72
2023/07/05 07:53:46;;;;;;;1.75;0.50;;;15.10;99.90;;;;;;5068578;28;20561;-71
2023/07/05 07:56:16;;;;;;;2.55;0.65;;;14.80;99.90;;;;;;5065223;28;20040;-71
2023/07/05 07:58:44;;;;;;;1.70;0.50;;;14.50;99.90;;;;;;5074596;28;20496;-71
2023/07/05 08:01:15;;;;;;;0.70;0.38;;;14.30;99.90;;;;;;5067486;28;20512;-71
2023/07/05 08:03:41;;;;;;;0.50;0.30;;;14.10;99.90;;;;;;5071994;28;20037;-70
2023/07/05 08:06:07;;;;;;;1.10;0.38;;;14.00;99.90;;;;;;5068216;28;20486;-71
2023/07/05 08:08:34;;;;;;;0.65;0.40;;;14.00;99.90;;;;;;5069752;28;20032;-70
2023/07/05 08:11:02;;;;;;;0.88;0.30;;;13.80;99.90;;;;;;5076909;28;20029;-71
2023/07/05 08:13:29;;;;;;;0.80;0.30;;;13.80;99.90;;;;;;5071553;28;20066;-73
2023/07/05 08:15:54;;;;;;;1.20;0.40;;;13.70;99.90;;;;;;5063290;28;20041;-71
2023/07/05 08:18:20;;;;;;;1.02;0.40;;;13.70;99.90;;;;;;5070291;28;20046;-73
2023/07/05 08:20:45;;;;;;;0.82;0.50;;;13.80;99.90;;;;;;5052913;28;20036;-73
2023/07/05 08:23:11;;;;;;;1.02;0.43;;;13.70;99.90;;;;;;5061671;28;20068;-73
2023/07/05 08:25:39;;;;;;;1.17;0.30;;;13.70;99.90;;;;;;5065005;28;20509;-73
2023/07/05 08:28:05;;;;;;;0.22;0.10;;;13.60;99.90;;;;;;5068535;28;20101;-73
2023/07/05 08:30:33;;;;;;;1.25;0.10;;;13.60;99.90;;;;;;5090063;28;20058;-73
2023/07/05 08:32:58;;;;;;;1.38;0.20;;;13.50;99.90;;;;;;5069319;28;20043;-73
2023/07/05 08:35:24;;;;;;;1.27;0.40;;;13.50;99.90;;;;;;5070966;28;20028;-72
2023/07/05 08:37:49;;;;;;;1.05;0.25;;;13.50;99.90;;;;;;5063164;28;20036;-73
2023/07/05 08:40:16;;;;;;;0.30;0.17;;;13.40;99.90;;;;;;5064958;28;20094;-73
2023/07/05 08:43:22;;;;;;;1.95;0.28;;;13.40;99.90;;;;;;5072701;28;20062;-72
2023/07/05 08:45:56;;;;;;;0.93;0.20;;;13.30;99.90;;;;;;5059766;28;20040;-71
2023/07/05 08:48:22;;;;;;;1.43;0.50;;;13.30;99.90;;;;;;5058970;28;20044;-72
2023/07/05 08:50:55;;;;;;;1.23;0.40;;;13.30;99.90;;;;;;5066383;28;20359;-73
2023/07/05 08:53:21;;;;;;;1.33;0.38;;;13.30;99.90;;;;;;5063314;28;20097;-72
2023/07/05 08:55:50;;;;;;;1.17;0.43;;;13.20;99.90;;;;;;5067770;28;20043;-73
2023/07/05 08:58:57;;;;;;;0.43;0.30;;;13.20;99.90;;;;;;5062503;28;20067;-72
2023/07/05 09:01:29;;;;;;;1.05;0.30;;;13.20;99.90;;;;;;5065932;28;20048;-73
2023/07/05 09:03:56;;;;;;;1.05;0.40;;;13.10;99.90;;;;;;5065901;28;20056;-72
2023/07/05 09:06:46;;;;;;;1.60;0.40;;;13.10;99.90;;;;;;5066637;28;20297;-72
2023/07/05 09:09:42;;;;;;;1.38;0.40;;;13.10;99.90;;;;;;5072570;28;20145;-72
2023/07/05 09:12:34;;;;;;;1.20;0.38;;;13.10;99.90;;;;;;5064428;28;20059;-74
2023/07/05 09:15:22;;;;;;;1.23;0.52;;;13.00;99.90;;;;;;5069312;28;20071;-73
2023/07/05 09:17:50;;;;;;;1.42;0.45;;;13.00;99.90;;;;;;5069318;28;20028;-73
2023/07/05 09:20:39;;;;;;;2.33;0.30;;;13.00;99.90;;;;;;5056586;28;20043;-73
2023/07/05 09:23:11;;;;;;;0.80;0.32;;;13.00;99.90;;;;;;5066257;28;20044;-73
2023/07/05 09:25:41;;;;;;;1.35;0.73;;;13.00;99.90;;;;;;5065061;28;20064;-73
2023/07/05 09:28:22;;;;;;;1.27;0.52;;;13.10;99.90;;;;;;5077168;28;20036;-75
2023/07/05 09:30:48;;;;;;;0.88;0.45;;;13.10;99.90;;;;;;5071205;28;20045;-73
2023/07/05 09:33:23;;;;;;;1.50;0.50;;;13.10;99.90;;;;;;5075550;28;21984;-73
2023/07/05 09:35:49;;;;;;;2.22;0.55;;;13.10;99.90;;;;;;5057520;28;20036;-73
2023/07/05 09:38:24;;;;;;;2.35;0.40;;;13.10;99.90;;;;;;5082632;28;20134;-74
2023/07/05 09:41:34;;;;;;;1.98;0.55;;;13.20;99.90;;;;;;5063503;28;20552;-74
2023/07/05 09:43:59;;;;;;;3.10;0.73;;;13.10;99.90;;;;;;5061435;28;20075;-73
2023/07/05 09:46:33;;;;;;;4.43;0.60;;;13.10;99.90;;;;;;5066983;28;20529;-72
2023/07/05 09:48:59;;;;;;;1.67;0.60;;;13.10;99.90;;;;;;5066738;28;20040;-72
2023/07/05 09:51:25;;;;;;;2.28;0.40;;;13.10;99.90;;;;;;5074031;28;20079;-72
2023/07/05 09:54:00;;;;;;;1.33;0.40;;;13.10;99.90;;;;;;5071328;28;20028;-73
2023/07/05 09:56:29;;;;;;;2.08;0.65;;;13.20;99.90;;;;;;5069115;28;20045;-73
2023/07/05 09:59:12;;;;;;;0.80;0.20;;;13.20;99.90;;;;;;5062831;28;20046;-73
2023/07/05 10:01:42;;;;;;;2.05;0.60;;;13.20;99.90;;;;;;5072532;28;20129;-73
2023/07/05 10:04:08;;;;;;;3.08;0.60;;;13.20;99.90;;;;;;5069162;28;20028;-73
2023/07/05 10:06:38;;;;;;;0.98;0.38;;;13.20;99.90;;;;;;5071518;28;20038;-73
2023/07/05 10:09:21;;;;;;;3.33;0.60;;;13.30;99.90;;;;;;5070345;28;20143;-73
2023/07/05 10:11:53;;;;;;;2.13;0.45;;;13.30;99.90;;;;;;5075992;28;20036;-73
2023/07/05 10:14:21;;;;;;;4.18;0.77;;;13.40;99.90;;;;;;5064121;28;20081;-73
2023/07/05 10:16:58;;;;;;;1.58;0.50;;;13.50;99.90;;;;;;5069385;28;21012;-73
2023/07/05 10:19:26;;;;;;;3.33;0.60;;;13.50;99.90;;;;;;5065601;28;20462;-73
2023/07/05 10:21:58;;;;;;;1.50;0.70;;;13.60;99.90;;;;;;5065734;28;20041;-73
2023/07/05 10:24:26;;;;;;;3.15;0.50;;;13.60;99.90;;;;;;5069443;28;20036;-74
2023/07/05 10:27:01;;;;;;;1.90;0.47;;;13.60;99.90;;;;;;5072757;28;20048;-74
2023/07/05 10:29:28;;;;;;;;;;;13.60;99.90;;;;;;5070013;28;20115;-74
2023/07/05 10:31:56;;;;;;;;;;;13.80;99.90;;;;;;5070328;28;20010;-74
2023/07/05 10:34:23;;;;;;;2.35;0.40;;;13.80;99.90;;;;;;5072536;28;19928;-73
2023/07/05 10:36:50;;;;;;;2.90;0.68;;;13.90;99.90;;;;;;5067505;28;20028;-74
2023/07/05 10:39:26;;;;;;;2.88;1.23;;;14.00;99.90;;;;;;5046404;28;20039;-73
2023/07/05 10:41:57;;;;;;;3.65;0.80;;;14.00;99.90;;;;;;5063575;28;20044;-74
2023/07/05 10:44:39;;;;;;;2.42;0.65;;;14.00;99.90;;;;;;5063937;28;20037;-73
2023/07/05 10:47:05;;;;;;;2.75;0.40;;;14.10;99.90;;;;;;5065125;28;20043;-73
2023/07/05 10:49:33;;;;;;;1.67;0.65;;;14.10;99.90;;;;;;5071313;28;20040;-73
2023/07/05 10:52:04;;;;;;;3.95;0.80;;;14.10;99.90;;;;;;5065972;28;20032;-73
2023/07/05 10:54:50;;;;;;;5.72;0.82;;;14.20;99.90;;;;;;5071716;28;20090;-73
2023/07/05 10:57:19;;;;;;;1.77;0.55;;;14.40;99.90;;;;;;5061756;28;20033;-73
2023/07/05 10:59:54;;;;;;;2.88;1.05;;;14.40;99.90;;;;;;5076957;28;20071;-72
2023/07/05 11:02:45;;;;;;;2.08;0.90;;;14.50;99.90;;;;;;5070231;28;20044;-73
2023/07/05 11:05:41;;;;;;;1.30;0.40;;;14.50;99.90;;;;;;5042938;28;20052;-73
2023/07/05 11:08:25;;;;;;;2.38;0.43;;;14.40;99.90;;;;;;5060270;28;20032;-79
2023/07/05 11:10:52;;;;;;;3.95;0.73;;;14.40;99.90;;;;;;5066986;28;20051;-80
2023/07/05 11:13:18;;;;;;;2.00;0.70;;;14.40;99.90;;;;;;5058337;28;20040;-77
2023/07/05 11:15:46;;;;;;;5.72;0.70;;;14.40;99.90;;;;;;5064689;28;20040;-83
2023/07/05 11:18:20;;;;;;;2.78;0.47;;;14.40;99.90;;;;;;5065758;28;20075;-81
2023/07/05 11:20:51;;;;;;;2.03;0.40;;;14.60;99.90;;;;;;5063734;28;20580;-82
2023/07/05 11:23:42;;;;;;;1.55;0.57;;;14.70;99.90;;;;;;5068956;28;20514;-81
2023/07/05 11:26:08;;;;;;;1.52;0.43;;;14.70;99.90;;;;;;5073787;28;20800;-81
2023/07/05 11:28:40;;;;;;;3.58;0.35;;;14.60;99.90;;;;;;5072470;28;20045;-79
2023/07/05 11:31:08;;;;;;;3.08;0.50;;;14.60;99.90;;;;;;5070749;28;20044;-79
2023/07/05 11:33:33;;;;;;;1.02;0.40;;;14.40;99.90;;;;;;5071080;28;20039;-73
2023/07/05 11:36:08;;;;;;;1.48;0.40;;;14.30;99.90;;;;;;5072348;28;20039;-72
2023/07/05 11:38:37;;;;;;;3.92;0.80;;;14.20;99.90;;;;;;5076166;28;21349;-74
2023/07/05 11:41:23;;;;;;;2.08;0.38;;;14.00;99.90;;;;;;5070278;28;20044;-73
2023/07/05 11:44:30;;;;;;;2.75;0.38;;;13.80;99.90;;;;;;5069793;28;20555;-73
2023/07/05 11:46:56;;;;;;;1.40;0.40;;;13.70;99.90;;;;;;5070757;28;20044;-73
2023/07/05 11:49:22;;;;;;;1.88;0.45;;;13.60;99.90;;;;;;5064578;28;20040;-73
2023/07/05 11:52:25;;;;;;;1.23;0.40;;;13.50;99.90;;;;;;5076023;28;20392;-73
2023/07/05 11:55:08;;;;;;;0.30;0.30;;;13.50;99.90;;;;;;5054140;28;20515;-73
2023/07/05 11:57:46;;;;;;;1.17;0.43;;;13.30;99.90;;;;;;5072494;28;20040;-72
2023/07/05 12:00:41;;;;;;;1.65;0.30;;;13.30;99.90;;;;;;5061513;28;20056;-72
2023/07/05 12:03:12;;;;;;;0.80;0.38;;;13.20;99.90;;;;;;5056745;28;20486;-73
2023/07/05 12:05:39;;;;;;;0.93;0.17;;;13.20;99.90;;;;;;5068847;28;20043;-73
2023/07/05 12:08:05;;;;;;;0.65;0.40;;;13.10;99.90;;;;;;5082951;28;20067;-72
2023/07/05 12:10:33;;;;;;;0.60;0.25;;;13.10;99.90;;;;;;5069629;28;20151;-73
2023/07/05 12:13:00;;;;;;;1.02;0.43;;;13.10;99.90;;;;;;5075274;28;20083;-71
2023/07/05 12:15:26;;;;;;;1.35;0.40;;;13.10;99.90;;;;;;5064357;28;20139;-72
2023/07/05 12:17:52;;;;;;;5.60;0.70;;;13.10;99.90;;;;;;5088829;28;20047;-72
2023/07/05 12:20:37;;;;;;;2.90;0.80;;;13.10;99.90;;;;;;5070672;28;20028;-72
2023/07/05 12:23:07;;;;;;;0.77;0.47;;;13.10;99.90;;;;;;5065006;28;20036;-72
2023/07/05 12:25:34;;;;;;;3.85;0.38;;;13.10;99.90;;;;;;5061140;28;20480;-72
2023/07/05 12:28:02;;;;;;;1.95;0.55;;;13.20;99.90;;;;;;5053150;28;20552;-73
2023/07/05 12:30:29;;;;;;;3.67;0.68;;;13.20;99.90;;;;;;5070428;28;20036;-73
2023/07/05 12:32:56;;;;;;;1.15;0.40;;;13.20;99.90;;;;;;5056450;28;20044;-72
2023/07/05 12:35:27;;;;;;;1.90;0.57;;;13.20;99.90;;;;;;5070617;28;20452;-72
2023/07/05 12:37:54;;;;;;;1.63;0.40;;;13.20;99.90;;;;;;5069763;28;20480;-72
2023/07/05 12:40:32;;;;;;;1.80;0.50;;;13.30;99.90;;;;;;5071544;28;20212;-73
2023/07/05 12:43:03;;;;;;;1.83;0.50;;;13.30;99.90;;;;;;5068840;28;20112;-72
2023/07/05 12:45:37;;;;;;;1.50;0.55;;;13.40;99.90;;;;;;5072516;28;20028;-73
2023/07/05 12:48:32;;;;;;;3.22;0.70;;;13.40;99.90;;;;;;5067078;28;20040;-73
2023/07/05 12:51:06;;;;;;;2.95;0.88;;;13.40;99.90;;;;;;5045207;28;20044;-72
2023/07/05 12:53:33;;;;;;;1.58;0.60;;;13.40;99.90;;;;;;5072766;28;20131;-72
2023/07/05 12:56:11;;;;;;;6.05;0.63;;;13.40;99.90;;;;;;5068225;28;20183;-72
2023/07/05 12:58:49;;;;;;;3.53;1.02;;;13.50;99.90;;;;;;5057108;28;20037;-72
2023/07/05 13:01:18;;;;;;;2.85;0.90;;;13.60;99.90;;;;;;5063796;28;20128;-73
2023/07/05 13:03:47;;;;;;;2.17;0.65;;;13.60;99.90;;;;;;5072387;28;20115;-73